Terminal Aerodrome Forecast
Issued by NWS

Home | Current Version | Previous Version | Text Only | Print | Product List | Glossary On
Versions: 1 2 3 4 5 6 7 8 9 10 11 12 13
000
FTUS42 KTBW 292339
TAFPGD
TAF
KPGD 292339Z 3000/3024 06006KT P6SM FEW050 SCT100 BKN250
     FM300300 VRB03KT P6SM FEW100 SCT250
     FM301400 VRB03KT P6SM SCT020 SCT250
     FM301700 26006KT P6SM VCTS BKN035CB
     FM302100 28008KT P6SM VCTS BKN050CB=

USA.gov is the U.S. government's official web portal to all federal, state and local government web resources and services.